Time;durP1;ratioP1;P1;durP2;ratioP2;P2;SDS_P1;SDS_P2;PMS_P1;PMS_P2;Temp;Humidity;BMP_temperature;BMP_pressure;BME280_temperature;BME280_humidity;BME280_pressure;Samples;Min_cycle;Max_cycle;Signal;HPM_P1;HPM_P2
2023/01/14 00:01:41;;;;;;;20.20;3.78;;;9.90;99.90;;;9.08;100.00;101490.47;4153878;28;20029;-80
2023/01/14 00:03:42;;;;;;;25.17;3.20;;;10.00;99.90;;;9.04;100.00;101475.88;4155180;28;20152;-80
2023/01/14 00:05:43;;;;;;;23.88;3.70;;;9.90;99.90;;;9.12;100.00;101483.97;4153831;28;20033;-80
2023/01/14 00:07:44;;;;;;;22.10;4.38;;;9.90;99.90;;;9.10;100.00;101480.63;4155480;28;20061;-80
2023/01/14 00:09:45;;;;;;;19.10;3.17;;;9.90;99.90;;;9.15;100.00;101491.59;4155013;28;20422;-80
2023/01/14 00:11:45;;;;;;;22.27;4.30;;;10.00;99.90;;;9.13;100.00;101486.47;4137407;28;20089;-80
2023/01/14 00:13:46;;;;;;;15.40;3.55;;;10.00;99.90;;;9.22;100.00;101492.78;4137255;28;20426;-80
2023/01/14 00:15:56;;;;;;;24.13;3.58;;;10.00;99.90;;;9.22;100.00;101476.97;4153632;28;20026;-79
2023/01/14 00:17:57;;;;;;;22.95;3.75;;;10.10;99.90;;;9.20;100.00;101482.34;4163010;28;20062;-80
2023/01/14 00:19:58;;;;;;;19.17;3.20;;;10.10;99.90;;;9.28;100.00;101479.09;4154818;28;20053;-80
2023/01/14 00:21:59;;;;;;;22.42;3.50;;;10.10;99.90;;;9.30;100.00;101474.53;4153465;28;20026;-80
2023/01/14 00:24:00;;;;;;;26.48;4.32;;;10.10;99.90;;;9.28;100.00;101473.81;4155153;28;20053;-80
2023/01/14 00:26:09;;;;;;;16.52;4.18;;;10.20;99.90;;;9.34;100.00;101460.97;4166476;28;20052;-80
2023/01/14 00:28:09;;;;;;;17.13;3.35;;;10.20;99.90;;;9.44;100.00;101464.47;4145544;28;20036;-79
2023/01/14 00:30:11;;;;;;;26.48;4.45;;;10.30;99.90;;;9.43;100.00;101448.81;4153290;28;20018;-79
2023/01/14 00:32:12;;;;;;;24.92;3.65;;;10.30;99.90;;;9.41;100.00;101445.47;4153273;28;20038;-80
2023/01/14 00:34:14;;;;;;;21.02;4.60;;;10.30;99.90;;;9.44;100.00;101442.56;4153997;28;20110;-80
2023/01/14 00:36:18;;;;;;;23.92;3.22;;;10.30;99.90;;;9.41;100.00;101434.94;4137865;28;20069;-80
2023/01/14 00:38:19;;;;;;;14.55;3.92;;;10.30;99.90;;;9.37;100.00;101433.56;4159396;28;20018;-80
2023/01/14 00:40:20;;;;;;;22.50;4.47;;;10.20;99.90;;;9.44;100.00;101435.50;4154516;28;20030;-79
2023/01/14 00:42:21;;;;;;;20.67;4.50;;;10.20;99.90;;;9.42;100.00;101431.34;4136931;28;20034;-79
2023/01/14 00:44:22;;;;;;;21.50;3.33;;;10.20;99.90;;;9.42;100.00;101410.28;4154486;28;20034;-80
2023/01/14 00:46:30;;;;;;;23.08;3.65;;;10.20;99.90;;;9.42;100.00;101399.75;4154999;28;20113;-80
2023/01/14 00:48:32;;;;;;;15.82;2.63;;;10.20;99.90;;;9.39;100.00;101384.22;4154232;28;20034;-80
2023/01/14 00:50:33;;;;;;;22.67;4.15;;;10.20;99.90;;;9.38;100.00;101377.28;4153293;28;20509;-80
2023/01/14 00:52:34;;;;;;;13.60;3.47;;;10.20;99.90;;;9.39;100.00;101379.78;4152106;28;20061;-80
2023/01/14 00:54:35;;;;;;;20.33;3.88;;;10.20;99.90;;;9.36;100.00;101360.78;4154338;28;20539;-80
2023/01/14 00:56:36;;;;;;;28.55;3.63;;;10.20;99.90;;;9.38;100.00;101343.03;4161391;28;20061;-80
2023/01/14 00:58:37;;;;;;;18.42;3.85;;;10.20;99.90;;;9.33;100.00;101343.47;4154022;28;20033;-80
2023/01/14 01:00:37;;;;;;;23.33;4.10;;;10.20;99.90;;;9.34;100.00;101333.75;4153167;28;20464;-79
2023/01/14 01:02:38;;;;;;;25.30;3.38;;;10.20;99.90;;;9.34;100.00;101345.13;4154175;28;20081;-80
2023/01/14 01:04:39;;;;;;;15.48;2.70;;;10.20;99.90;;;9.33;100.00;101345.25;4153970;28;20057;-80
2023/01/14 01:06:40;;;;;;;23.48;4.07;;;10.20;99.90;;;9.30;100.00;101342.88;4158491;28;20084;-80
2023/01/14 01:08:42;;;;;;;15.73;3.10;;;10.20;99.90;;;9.27;100.00;101346.63;4152948;28;20042;-80
2023/01/14 01:10:44;;;;;;;21.40;3.83;;;10.10;99.90;;;9.30;100.00;101340.25;4136511;28;20030;-80
2023/01/14 01:12:45;;;;;;;26.00;4.65;;;10.10;99.90;;;9.34;100.00;101339.88;4152635;28;20038;-80
2023/01/14 01:14:47;;;;;;;21.73;5.30;;;10.20;99.90;;;9.33;100.00;101334.72;4153903;28;20025;-80
2023/01/14 01:16:48;;;;;;;20.40;3.78;;;10.10;99.90;;;9.34;100.00;101317.97;4152659;28;20050;-79
2023/01/14 01:18:50;;;;;;;21.38;2.65;;;10.20;99.90;;;9.34;100.00;101318.81;4152832;28;20026;-80
2023/01/14 01:20:59;;;;;;;26.67;3.65;;;10.20;99.90;;;9.37;100.00;101309.81;4152597;28;20038;-80
2023/01/14 01:23:00;;;;;;;25.40;3.20;;;10.20;99.90;;;9.31;100.00;101307.72;4154259;28;20040;-80
2023/01/14 01:25:01;;;;;;;21.58;3.22;;;10.20;99.90;;;9.28;100.00;101298.28;4162458;28;20034;-80
2023/01/14 01:27:02;;;;;;;23.42;4.57;;;10.20;99.90;;;9.26;100.00;101297.56;4184735;28;20036;-80
2023/01/14 01:29:04;;;;;;;29.15;5.00;;;10.10;99.90;;;9.26;100.00;101291.47;4154093;28;20026;-79
2023/01/14 01:31:10;;;;;;;20.25;4.53;;;10.10;99.90;;;9.27;100.00;101290.50;4151916;28;20026;-80
2023/01/14 01:33:11;;;;;;;18.02;3.95;;;10.10;99.90;;;9.30;100.00;101288.44;4152585;28;20034;-80
2023/01/14 01:35:12;;;;;;;21.15;4.05;;;10.10;99.90;;;9.30;100.00;101293.72;4153609;28;20034;-80
2023/01/14 01:37:13;;;;;;;19.50;4.03;;;10.10;99.90;;;9.26;100.00;101278.28;4163792;28;20030;-80
2023/01/14 01:39:14;;;;;;;26.52;4.65;;;10.10;99.90;;;9.28;100.00;101286.91;4152462;28;20111;-80
2023/01/14 01:41:21;;;;;;;26.50;4.18;;;10.20;99.90;;;9.33;100.00;101275.00;4153597;28;20026;-80
2023/01/14 01:43:28;;;;;;;23.20;3.80;;;10.20;99.90;;;9.39;100.00;101284.16;4152274;28;20445;-80
2023/01/14 01:45:50;;;;;;;24.48;3.45;;;10.20;99.90;;;9.54;100.00;101277.53;4152392;28;20113;-80
2023/01/14 01:48:06;;;;;;;25.83;4.00;;;10.30;99.90;;;9.57;100.00;101282.53;4148009;28;20033;-80
2023/01/14 01:50:08;;;;;;;14.60;2.80;;;10.40;99.90;;;9.63;100.00;101268.81;4137214;28;20034;-80
2023/01/14 01:52:17;;;;;;;18.58;3.20;;;10.40;99.90;;;9.67;100.00;101272.03;4152380;28;20076;-80
2023/01/14 01:54:24;;;;;;;29.13;3.88;;;10.50;99.90;;;9.71;100.00;101282.13;4152574;28;20026;-80
2023/01/14 01:56:33;;;;;;;24.02;4.15;;;10.50;99.90;;;9.71;100.00;101290.03;4157479;28;20530;-79
2023/01/14 01:58:35;;;;;;;26.90;4.47;;;10.50;99.90;;;9.76;100.00;101277.31;4152071;28;20114;-80
2023/01/14 02:00:37;;;;;;;26.75;4.25;;;10.60;99.90;;;9.84;100.00;101266.91;4152353;28;20092;-80
2023/01/14 02:02:37;;;;;;;19.00;2.70;;;10.60;99.90;;;9.78;100.00;101269.25;4153191;28;20021;-80
2023/01/14 02:04:38;;;;;;;17.52;4.00;;;10.60;99.90;;;9.79;100.00;101270.94;4135341;28;20085;-80
2023/01/14 02:06:39;;;;;;;17.00;2.50;;;10.60;99.90;;;9.82;100.00;101260.94;4156358;28;20022;-80
2023/01/14 02:08:47;;;;;;;17.80;2.38;;;10.60;99.90;;;9.78;100.00;101253.44;4153249;28;20088;-79
2023/01/14 02:11:12;;;;;;;24.73;3.35;;;10.60;99.90;;;9.80;100.00;101249.69;4152090;28;20519;-79
2023/01/14 02:14:11;;;;;;;15.88;3.05;;;10.60;99.90;;;9.81;100.00;101256.63;4153328;28;20378;-79
2023/01/14 02:16:55;;;;;;;22.75;5.68;;;10.60;99.90;;;9.81;100.00;101251.38;4087776;29;20044;-80
2023/01/14 02:19:22;;;;;;;15.70;3.63;;;10.60;99.90;;;9.82;100.00;101241.66;4148814;28;20034;-79
2023/01/14 02:21:33;;;;;;;15.32;2.63;;;10.60;99.90;;;9.81;100.00;101243.47;4153002;28;20029;-79
2023/01/14 02:23:43;;;;;;;15.55;2.80;;;10.60;99.90;;;9.80;100.00;101246.22;4135832;28;20072;-79
2023/01/14 02:25:50;;;;;;;21.98;3.03;;;10.60;99.90;;;9.84;100.00;101248.47;4136193;28;20031;-80
2023/01/14 02:28:39;;;;;;;22.10;4.07;;;10.70;99.90;;;9.83;100.00;101245.94;4162507;28;20493;-80
2023/01/14 02:31:06;;;;;;;13.77;1.92;;;10.70;99.90;;;9.86;100.00;101249.13;4151590;28;20022;-80
2023/01/14 02:33:35;;;;;;;12.00;2.40;;;10.70;99.90;;;9.90;100.00;101255.81;4151879;28;20026;-80
2023/01/14 02:35:39;;;;;;;14.25;2.25;;;10.70;99.90;;;9.92;100.00;101247.75;4151556;28;20428;-80
2023/01/14 02:37:58;;;;;;;17.65;4.45;;;10.80;99.90;;;9.93;100.00;101244.16;4162859;28;20434;-80
2023/01/14 02:40:08;;;;;;;12.02;2.55;;;10.80;99.90;;;10.01;100.00;101245.09;4151678;28;20503;-80
2023/01/14 02:44:59;;;;;;;13.57;1.85;;;10.90;99.90;;;10.16;100.00;101232.34;4151527;28;20101;-80
2023/01/14 02:47:18;;;;;;;13.25;2.88;;;10.90;99.90;;;10.17;100.00;101233.19;4158878;28;20026;-80
2023/01/14 02:49:35;;;;;;;13.65;2.20;;;11.00;99.90;;;10.23;100.00;101222.09;4152984;28;20030;-79
2023/01/14 02:51:37;;;;;;;15.75;3.50;;;11.00;99.90;;;10.29;100.00;101226.78;4135136;28;20026;-80
2023/01/14 02:53:38;;;;;;;9.65;1.98;;;11.00;99.90;;;10.34;100.00;101230.66;4151455;28;20555;-80
2023/01/14 02:55:39;;;;;;;12.45;2.30;;;11.10;99.90;;;10.38;100.00;101229.41;4152619;28;20034;-80
2023/01/14 02:58:01;;;;;;;8.13;1.88;;;11.20;99.90;;;10.43;100.00;101216.63;4152394;28;20401;-80
2023/01/14 03:00:10;;;;;;;10.80;2.10;;;11.20;99.90;;;10.56;100.00;101218.94;4152431;28;20109;-80
2023/01/14 03:02:54;;;;;;;9.77;2.10;;;11.30;99.90;;;10.67;100.00;101216.13;4152688;28;20092;-80
2023/01/14 03:05:33;;;;;;;8.82;2.45;;;11.40;99.90;;;10.77;100.00;101202.88;4136913;28;20033;-80
2023/01/14 03:07:45;;;;;;;13.73;2.15;;;11.50;99.90;;;10.88;100.00;101215.88;4151342;28;20033;-79
2023/01/14 03:09:55;;;;;;;10.23;2.15;;;11.60;99.90;;;10.89;100.00;101210.47;4152432;28;20033;-80
2023/01/14 03:12:13;;;;;;;10.48;2.53;;;11.70;99.90;;;10.99;100.00;101198.03;4150981;28;20120;-80
2023/01/14 03:14:28;;;;;;;13.15;2.53;;;11.70;99.90;;;11.09;100.00;101190.91;4150944;28;20073;-80
2023/01/14 03:16:57;;;;;;;12.50;2.20;;;11.80;99.90;;;11.16;100.00;101200.88;4151193;28;20040;-79
2023/01/14 03:19:54;;;;;;;13.95;2.75;;;11.90;99.90;;;11.26;100.00;101199.00;4147604;28;20037;-80
2023/01/14 03:21:58;;;;;;;17.15;2.63;;;12.00;99.90;;;11.27;100.00;101192.72;4152397;28;20116;-80
2023/01/14 03:24:06;;;;;;;13.32;1.90;;;12.00;99.90;;;11.27;100.00;101192.72;4151730;28;20164;-80
2023/01/14 03:26:09;;;;;;;11.52;2.00;;;12.10;99.90;;;11.35;100.00;101184.91;4162384;28;20490;-80
2023/01/14 03:28:20;;;;;;;14.48;2.28;;;12.10;99.90;;;11.38;100.00;101193.34;4154290;28;20112;-80
2023/01/14 03:30:29;;;;;;;13.95;2.30;;;12.10;99.90;;;11.40;100.00;101185.28;4151108;28;20030;-80
2023/01/14 03:32:48;;;;;;;16.33;2.88;;;12.20;99.90;;;11.43;100.00;101190.25;4135343;28;20030;-80
2023/01/14 03:35:18;;;;;;;18.95;3.10;;;12.20;99.90;;;11.51;100.00;101187.69;4151379;28;20030;-79
2023/01/14 03:37:25;;;;;;;11.15;2.33;;;12.20;99.90;;;11.56;100.00;101180.13;4152192;28;20494;-80
2023/01/14 03:39:28;;;;;;;15.52;2.85;;;12.30;99.90;;;11.53;100.00;101178.63;4151282;28;20018;-80
2023/01/14 03:43:54;;;;;;;10.57;3.03;;;12.40;99.90;;;11.64;100.00;101180.22;4151051;28;20080;-80
2023/01/14 03:45:56;;;;;;;11.98;2.47;;;12.40;99.90;;;11.62;100.00;101182.16;4152666;28;20125;-80
2023/01/14 03:47:57;;;;;;;9.85;2.47;;;12.40;99.90;;;11.62;100.00;101176.88;4155971;28;20392;-80
2023/01/14 03:50:02;;;;;;;15.98;2.72;;;12.40;99.90;;;11.76;100.00;101176.41;4150766;28;20038;-80
2023/01/14 03:52:34;;;;;;;15.68;2.20;;;12.50;99.90;;;11.74;100.00;101174.91;4151089;28;20037;-80
2023/01/14 03:55:01;;;;;;;16.33;2.40;;;12.50;99.90;;;11.77;100.00;101159.53;4151380;28;20048;-80
2023/01/14 03:57:31;;;;;;;14.27;2.50;;;12.50;99.90;;;11.83;100.00;101166.84;4154439;28;20014;-80
2023/01/14 03:59:39;;;;;;;9.68;2.45;;;12.50;99.90;;;11.86;100.00;101155.13;4123738;28;20401;-80
2023/01/14 04:01:53;;;;;;;15.40;2.67;;;12.60;99.90;;;11.86;100.00;101129.53;4152021;28;20026;-80
2023/01/14 04:03:54;;;;;;;15.70;2.08;;;12.60;99.90;;;11.92;100.00;101125.44;4151047;28;20061;-79
2023/01/14 04:05:55;;;;;;;9.60;1.83;;;12.60;99.90;;;11.95;100.00;101122.47;4151101;28;20044;-80
2023/01/14 04:07:59;;;;;;;12.50;2.85;;;12.70;99.90;;;12.00;100.00;101129.00;4150681;28;20092;-79
2023/01/14 04:10:00;;;;;;;14.87;3.17;;;12.70;99.90;;;12.04;100.00;101097.75;4150896;28;20022;-79
2023/01/14 04:12:00;;;;;;;11.40;2.00;;;12.70;99.90;;;11.95;100.00;101099.53;4151945;28;20281;-79
2023/01/14 04:16:22;;;;;;;4.90;1.52;;;12.70;99.90;;;11.93;100.00;101092.75;4154909;28;20526;-79
2023/01/14 04:18:23;;;;;;;6.35;1.40;;;12.70;99.90;;;11.96;100.00;101098.56;4160647;28;20113;-80
2023/01/14 04:20:24;;;;;;;8.85;1.70;;;12.70;99.90;;;11.95;100.00;101088.13;4151836;28;20025;-79
2023/01/14 04:22:25;;;;;;;5.75;1.13;;;12.70;99.90;;;12.02;100.00;101091.81;4151782;28;20147;-80
2023/01/14 04:24:26;;;;;;;7.93;1.70;;;12.70;99.90;;;11.97;100.00;101096.75;4156262;28;20056;-79
2023/01/14 04:26:28;;;;;;;8.60;1.27;;;12.70;99.90;;;12.08;100.00;101089.38;4165881;28;20433;-80
2023/01/14 04:28:29;;;;;;;6.25;0.85;;;12.80;99.90;;;12.05;100.00;101086.19;4160135;28;20044;-80
2023/01/14 04:30:29;;;;;;;7.07;1.55;;;12.80;99.90;;;12.01;100.00;101088.31;4153389;28;20548;-80
2023/01/14 04:32:30;;;;;;;8.63;1.65;;;12.80;99.90;;;11.97;100.00;101071.13;4154678;28;20038;-80
2023/01/14 04:34:31;;;;;;;6.97;1.15;;;12.80;99.90;;;12.05;100.00;101084.41;4154786;28;20036;-80
2023/01/14 04:36:32;;;;;;;9.35;1.38;;;12.80;99.90;;;12.10;100.00;101068.88;4154541;28;20033;-79
2023/01/14 04:38:33;;;;;;;5.35;1.60;;;12.80;99.90;;;12.03;100.00;101054.66;4154462;28;20112;-79
2023/01/14 04:40:34;;;;;;;7.15;1.52;;;12.80;99.90;;;12.08;100.00;101054.16;4153349;28;20026;-80
2023/01/14 04:42:35;;;;;;;4.75;1.02;;;12.80;99.90;;;12.14;100.00;101045.59;4154525;28;20052;-79
2023/01/14 04:44:35;;;;;;;7.18;1.50;;;12.80;99.90;;;12.12;100.00;101037.00;4154284;28;20026;-80
2023/01/14 04:46:36;;;;;;;6.15;1.92;;;12.90;99.90;;;12.09;100.00;101030.22;4159556;28;20025;-79
2023/01/14 04:48:37;;;;;;;7.05;1.38;;;12.80;99.90;;;12.10;100.00;101023.09;4153591;28;20030;-80
2023/01/14 04:50:45;;;;;;;7.35;1.30;;;12.80;99.90;;;12.11;100.00;101025.59;4154450;28;20401;-80
2023/01/14 04:52:45;;;;;;;7.95;1.80;;;12.90;99.90;;;12.05;100.00;101013.00;4154319;28;20037;-80
2023/01/14 04:54:47;;;;;;;6.75;2.08;;;12.90;99.90;;;12.05;100.00;100991.00;4152877;28;20018;-80
2023/01/14 04:56:47;;;;;;;9.23;1.95;;;12.80;99.90;;;12.13;100.00;100994.50;4156024;28;20474;-79
2023/01/14 04:58:48;;;;;;;7.68;1.77;;;12.90;99.90;;;12.09;100.00;100985.25;4154123;28;20030;-79
2023/01/14 05:00:50;;;;;;;9.68;1.88;;;12.90;99.90;;;12.11;100.00;100982.44;4154068;28;20394;-80
2023/01/14 05:02:51;;;;;;;9.55;1.40;;;12.90;99.90;;;12.19;100.00;100979.81;4154163;28;20125;-80
2023/01/14 05:04:52;;;;;;;9.90;1.73;;;12.90;99.90;;;12.13;100.00;100976.00;4154336;28;20029;-79
2023/01/14 05:06:54;;;;;;;9.82;1.75;;;12.90;99.90;;;12.06;100.00;100969.72;4154418;28;20026;-80
2023/01/14 05:08:55;;;;;;;12.85;3.28;;;12.90;99.90;;;12.12;100.00;100973.53;4153031;28;20044;-80
2023/01/14 05:10:56;;;;;;;9.48;1.77;;;12.80;99.90;;;12.14;100.00;100977.66;4152935;28;20034;-80
2023/01/14 05:12:57;;;;;;;10.32;2.33;;;12.80;99.90;;;12.15;100.00;100960.00;4152899;28;20026;-79
2023/01/14 05:14:58;;;;;;;12.00;2.15;;;12.90;99.90;;;12.12;100.00;100955.03;4153936;28;20025;-79
2023/01/14 05:16:59;;;;;;;11.68;2.22;;;12.90;99.90;;;12.24;100.00;100966.97;4161832;28;20095;-79
2023/01/14 05:19:00;;;;;;;6.53;1.35;;;12.90;99.90;;;12.11;100.00;100967.41;4160148;28;20393;-80
2023/01/14 05:21:01;;;;;;;11.55;1.60;;;12.90;99.90;;;12.19;100.00;100956.00;4152791;28;20022;-79
2023/01/14 05:23:12;;;;;;;7.70;2.03;;;12.90;99.90;;;12.10;100.00;100936.66;4152743;28;20476;-80
2023/01/14 05:25:13;;;;;;;10.48;1.98;;;12.90;99.90;;;12.13;100.00;100951.38;4163516;28;20080;-80
2023/01/14 05:27:14;;;;;;;11.30;2.28;;;12.90;99.90;;;12.09;100.00;100947.41;4148317;28;20087;-79
2023/01/14 05:29:15;;;;;;;17.35;2.53;;;12.90;99.90;;;12.14;100.00;100930.06;4153663;28;20030;-79
2023/01/14 05:31:16;;;;;;;11.85;3.00;;;12.90;99.90;;;12.20;100.00;100918.84;4152170;28;20024;-79
2023/01/14 05:33:17;;;;;;;13.88;3.15;;;12.90;99.90;;;12.13;100.00;100935.50;4153896;28;20027;-79
2023/01/14 05:35:18;;;;;;;12.43;1.88;;;12.90;99.90;;;12.11;100.00;100913.69;4153574;28;20386;-79
2023/01/14 05:37:19;;;;;;;8.43;2.63;;;12.90;99.90;;;12.16;100.00;100912.22;4160727;28;20105;-79
2023/01/14 05:39:20;;;;;;;11.43;2.53;;;12.90;99.90;;;12.09;100.00;100911.22;4153223;28;20062;-80
2023/01/14 05:41:20;;;;;;;10.23;1.80;;;12.90;99.90;;;12.14;100.00;100889.56;4152545;28;20030;-79
2023/01/14 05:45:51;;;;;;;14.07;2.35;;;12.90;99.90;;;12.11;100.00;100897.81;4152937;28;20109;-79
2023/01/14 05:47:52;;;;;;;10.38;1.85;;;12.90;99.90;;;12.18;100.00;100891.72;4156797;28;20036;-79
2023/01/14 05:49:53;;;;;;;9.27;2.35;;;12.90;99.90;;;12.14;100.00;100897.50;4153460;28;20022;-79
2023/01/14 05:51:54;;;;;;;18.05;2.63;;;12.90;99.90;;;12.21;100.00;100883.44;4152109;28;20033;-78
2023/01/14 05:53:55;;;;;;;21.40;2.75;;;12.90;99.90;;;12.24;100.00;100887.63;4153494;28;20025;-79
2023/01/14 05:55:57;;;;;;;9.63;1.98;;;13.00;99.90;;;12.14;100.00;100881.63;4153374;28;20049;-78
2023/01/14 05:58:00;;;;;;;13.25;2.13;;;12.90;99.90;;;12.21;100.00;100870.22;4138038;28;20027;-78
2023/01/14 06:00:04;;;;;;;13.93;1.83;;;13.00;99.90;;;12.27;100.00;100870.59;4152229;28;20491;-79
2023/01/14 06:06:48;;;;;;;15.50;2.40;;;13.00;99.90;;;12.20;100.00;100879.16;4152704;28;20029;-79
2023/01/14 06:08:54;;;;;;;7.70;2.17;;;13.00;99.90;;;12.28;100.00;100877.50;4152235;28;20025;-79
2023/01/14 06:10:55;;;;;;;12.05;2.67;;;13.00;99.90;;;12.37;100.00;100881.81;4153124;28;20028;-78
2023/01/14 06:13:02;;;;;;;12.68;3.15;;;13.00;99.90;;;12.21;100.00;100867.59;4152942;28;20049;-79
2023/01/14 06:15:03;;;;;;;15.27;2.72;;;13.00;99.90;;;12.28;100.00;100877.50;4151684;28;20080;-79
2023/01/14 06:17:08;;;;;;;15.40;2.47;;;13.00;99.90;;;12.32;100.00;100878.84;4159406;28;20045;-79
2023/01/14 06:19:12;;;;;;;13.48;3.03;;;13.00;99.90;;;12.39;100.00;100885.97;4154078;28;20030;-79
2023/01/14 06:21:15;;;;;;;;;;;13.00;99.90;;;12.26;100.00;100869.75;4152346;28;20025;-79
2023/01/14 06:23:18;;;;;;;13.60;3.63;;;13.10;99.90;;;12.36;100.00;100870.44;4151947;28;19910;-79
2023/01/14 06:25:19;;;;;;;10.63;3.08;;;13.10;99.90;;;12.28;100.00;100866.94;4153449;28;20030;-79
2023/01/14 06:27:20;;;;;;;14.10;2.50;;;13.10;99.90;;;12.27;100.00;100855.56;4160333;28;20055;-79
2023/01/14 06:29:21;;;;;;;15.30;3.45;;;13.10;99.90;;;12.48;100.00;100841.84;4151525;28;20034;-79
2023/01/14 06:31:22;;;;;;;13.52;3.42;;;13.10;99.90;;;12.33;100.00;100848.78;4153161;28;20034;-79
2023/01/14 06:33:23;;;;;;;18.15;2.97;;;13.10;99.90;;;12.27;100.00;100823.81;4152807;28;20616;-79
2023/01/14 06:35:24;;;;;;;12.68;2.42;;;13.10;99.90;;;12.25;100.00;100824.94;4152648;28;20030;-79
2023/01/14 06:37:25;;;;;;;16.63;3.50;;;13.10;99.90;;;12.26;100.00;100813.38;4157685;28;20054;-79
2023/01/14 06:39:26;;;;;;;20.60;4.30;;;13.00;99.90;;;12.30;100.00;100807.63;4152773;28;20018;-79
2023/01/14 06:41:27;;;;;;;18.60;3.30;;;13.00;99.90;;;12.37;100.00;100803.28;4151661;28;20076;-79
2023/01/14 06:43:28;;;;;;;14.25;2.80;;;13.10;99.90;;;12.31;100.00;100814.53;4151234;28;20034;-79
2023/01/14 06:45:29;;;;;;;13.90;2.88;;;13.10;99.90;;;12.23;100.00;100790.75;4152511;28;20080;-79
2023/01/14 06:47:29;;;;;;;18.02;3.38;;;13.10;99.90;;;12.20;100.00;100799.00;4155346;28;20026;-79
2023/01/14 06:49:30;;;;;;;17.70;3.85;;;13.00;99.90;;;12.25;100.00;100814.38;4150868;28;20033;-79
2023/01/14 06:51:32;;;;;;;12.82;3.42;;;13.00;99.90;;;12.42;100.00;100821.31;4152204;28;20038;-79
2023/01/14 06:53:33;;;;;;;17.40;2.80;;;13.10;99.90;;;12.32;100.00;100826.78;4152683;28;20022;-79
2023/01/14 06:55:34;;;;;;;13.18;3.40;;;13.10;99.90;;;12.40;100.00;100812.72;4151680;28;20393;-79
2023/01/14 06:57:35;;;;;;;19.65;3.80;;;13.10;99.90;;;12.39;100.00;100806.63;4158159;28;20034;-79
2023/01/14 06:59:36;;;;;;;15.75;3.63;;;13.10;99.90;;;12.29;100.00;100805.94;4151148;28;20113;-79
2023/01/14 07:01:36;;;;;;;12.98;3.17;;;13.10;99.90;;;12.35;100.00;100802.66;4152520;28;20588;-79
2023/01/14 07:03:38;;;;;;;16.05;3.17;;;13.10;99.90;;;12.30;100.00;100806.78;4151226;28;20033;-79
2023/01/14 07:05:39;;;;;;;14.13;3.05;;;13.10;99.90;;;12.35;100.00;100820.31;4153287;28;20029;-79
2023/01/14 07:07:40;;;;;;;20.67;3.67;;;13.00;99.90;;;12.34;100.00;100813.38;4154970;28;20022;-79
2023/01/14 07:09:42;;;;;;;18.98;3.35;;;13.00;99.90;;;12.26;100.00;100802.81;4151060;28;20018;-79
2023/01/14 07:11:42;;;;;;;16.92;2.88;;;13.00;99.90;;;12.25;100.00;100787.91;4152389;28;20109;-79
2023/01/14 07:13:43;;;;;;;15.85;2.60;;;13.00;99.90;;;12.30;100.00;100809.44;4150920;28;20022;-79
2023/01/14 07:15:45;;;;;;;20.58;4.35;;;13.00;99.90;;;12.31;100.00;100789.91;4153575;28;20040;-79
2023/01/14 07:17:48;;;;;;;16.10;3.67;;;13.00;99.90;;;12.29;100.00;100786.59;4155082;28;20453;-79
2023/01/14 07:19:49;;;;;;;15.68;3.58;;;13.00;99.90;;;12.17;100.00;100789.59;4151241;28;20486;-79
2023/01/14 07:21:49;;;;;;;20.08;2.80;;;13.00;99.90;;;12.25;100.00;100790.56;4151549;28;20050;-79
2023/01/14 07:23:50;;;;;;;15.35;2.38;;;13.00;99.90;;;12.27;100.00;100770.91;4152463;28;20025;-79
2023/01/14 07:25:55;;;;;;;23.83;3.45;;;13.00;99.90;;;12.30;100.00;100765.28;4166544;28;20413;-79
2023/01/14 07:27:56;;;;;;;11.60;2.95;;;13.00;99.90;;;12.18;100.00;100767.41;4161422;28;20536;-79
2023/01/14 07:29:58;;;;;;;23.40;4.47;;;12.90;99.90;;;12.07;100.00;100769.56;4151054;28;20030;-79
2023/01/14 07:32:00;;;;;;;19.77;3.30;;;12.90;99.90;;;12.02;100.00;100756.84;4152144;28;20497;-79
2023/01/14 07:34:00;;;;;;;14.38;4.25;;;12.80;99.90;;;11.92;100.00;100772.03;4152279;28;20060;-79
2023/01/14 07:36:02;;;;;;;19.70;3.78;;;12.70;99.90;;;11.88;100.00;100765.44;4155569;28;20021;-79
2023/01/14 07:38:02;;;;;;;22.98;2.83;;;12.70;99.90;;;11.92;100.00;100755.34;4157844;28;20061;-79
2023/01/14 07:40:05;;;;;;;17.58;3.70;;;12.70;99.90;;;11.81;100.00;100742.47;4152200;28;20063;-79
2023/01/14 07:42:06;;;;;;;15.73;3.55;;;12.70;99.90;;;11.89;100.00;100751.22;4150576;28;20034;-79
2023/01/14 07:44:07;;;;;;;20.25;3.53;;;12.60;99.90;;;11.89;100.00;100751.22;4150792;28;20036;-80
2023/01/14 07:46:09;;;;;;;20.75;4.35;;;12.60;99.90;;;11.92;100.00;100753.53;4152190;28;20042;-79
2023/01/14 07:48:10;;;;;;;17.48;4.05;;;12.60;99.90;;;11.85;100.00;100749.09;4150828;28;20026;-79
2023/01/14 07:50:11;;;;;;;22.55;4.68;;;12.70;99.90;;;11.80;100.00;100731.06;4151961;28;20524;-80
2023/01/14 07:52:14;;;;;;;21.10;3.42;;;12.60;99.90;;;11.80;100.00;100741.63;4151108;28;20029;-79
2023/01/14 07:54:17;;;;;;;17.80;3.20;;;12.60;99.90;;;11.79;100.00;100742.63;4152099;28;20026;-79
2023/01/14 07:56:18;;;;;;;20.58;4.25;;;12.60;99.90;;;11.77;100.00;100734.03;4157223;28;20033;-79
2023/01/14 07:58:21;;;;;;;16.23;3.58;;;12.60;99.90;;;11.87;100.00;100742.63;4151697;28;20026;-79
2023/01/14 08:00:22;;;;;;;16.58;3.25;;;12.60;99.90;;;11.78;100.00;100754.19;4152302;28;20026;-79
2023/01/14 08:02:23;;;;;;;20.55;4.10;;;12.60;99.90;;;11.90;100.00;100758.16;4154464;28;20084;-81
2023/01/14 08:04:23;;;;;;;17.05;3.17;;;12.60;99.90;;;11.89;100.00;100743.28;4153949;28;20401;-79
2023/01/14 08:06:25;;;;;;;17.20;3.63;;;12.60;99.90;;;11.87;100.00;100750.56;4157980;28;20063;-79
2023/01/14 08:08:26;;;;;;;20.05;3.58;;;12.60;99.90;;;11.83;100.00;100746.59;4155458;28;20113;-79
2023/01/14 08:10:27;;;;;;;20.98;4.32;;;12.60;99.90;;;11.69;100.00;100744.56;4155099;28;20030;-79
2023/01/14 08:12:30;;;;;;;20.77;5.00;;;12.60;99.90;;;11.74;100.00;100739.63;4153779;28;20072;-79
2023/01/14 08:14:31;;;;;;;18.40;3.67;;;12.60;99.90;;;11.80;100.00;100746.91;4154634;28;20033;-79
2023/01/14 08:16:32;;;;;;;25.08;5.88;;;12.60;99.90;;;11.82;100.00;100752.88;4154775;28;20030;-79
2023/01/14 08:18:34;;;;;;;27.55;5.63;;;12.60;99.90;;;11.79;100.00;100734.72;4154904;28;20030;-79
2023/01/14 08:20:35;;;;;;;22.50;4.00;;;12.60;99.90;;;11.84;100.00;100742.13;4154877;28;20025;-79
2023/01/14 08:22:37;;;;;;;26.23;4.00;;;12.60;99.90;;;11.79;100.00;100740.00;4154774;28;20030;-79
2023/01/14 08:24:39;;;;;;;29.00;4.97;;;12.60;99.90;;;11.84;100.00;100742.13;4159806;28;20026;-79
2023/01/14 08:26:40;;;;;;;28.30;4.72;;;12.60;99.90;;;11.95;100.00;100736.50;4168627;28;20029;-79
2023/01/14 08:28:41;;;;;;;28.27;4.55;;;12.60;99.90;;;11.86;100.00;100729.56;4158413;28;20026;-80
2023/01/14 08:30:43;;;;;;;30.23;5.03;;;12.60;99.90;;;11.76;100.00;100737.69;4154601;28;20062;-79
2023/01/14 08:32:43;;;;;;;22.15;4.13;;;12.60;99.90;;;11.82;100.00;100725.63;4154645;28;20057;-79
2023/01/14 08:34:45;;;;;;;33.22;5.25;;;12.60;99.90;;;11.78;100.00;100727.75;4137118;28;20026;-79
2023/01/14 08:36:45;;;;;;;30.17;4.32;;;12.60;99.90;;;11.82;100.00;100729.09;4163092;28;20029;-79
2023/01/14 08:38:51;;;;;;;26.23;4.45;;;12.60;99.90;;;11.79;100.00;100721.50;4155495;28;20029;-80
2023/01/14 08:40:52;;;;;;;24.60;5.28;;;12.60;99.90;;;11.77;100.00;100727.94;4150057;28;20021;-78
2023/01/14 08:42:53;;;;;;;20.30;3.97;;;12.50;99.90;;;11.79;100.00;100713.56;4154527;28;20034;-79
2023/01/14 08:44:54;;;;;;;21.08;4.85;;;12.50;99.90;;;11.71;100.00;100710.91;4153152;28;20073;-79
2023/01/14 08:46:55;;;;;;;23.48;3.92;;;12.50;99.90;;;11.73;100.00;100714.22;4153091;28;20049;-80